Time;durP1;ratioP1;P1;durP2;ratioP2;P2;SDS_P1;SDS_P2;PMS_P1;PMS_P2;Temp;Humidity;BMP_temperature;BMP_pressure;BME280_temperature;BME280_humidity;BME280_pressure;Samples;Min_cycle;Max_cycle;Signal;HPM_P1;HPM_P2
2022/07/08 00:02:01;;;;;;;7.35;1.90;;;22.70;85.50;;;;;;4896600;29;20104;-84
2022/07/08 00:04:27;;;;;;;6.88;1.60;;;22.70;85.70;;;;;;4894724;29;20817;-83
2022/07/08 00:06:52;;;;;;;5.45;2.13;;;22.70;86.00;;;;;;4896955;29;20029;-84
2022/07/08 00:09:18;;;;;;;5.30;1.90;;;22.70;85.80;;;;;;4895889;29;20060;-84
2022/07/08 00:11:44;;;;;;;4.68;1.73;;;22.60;86.40;;;;;;4896702;29;20028;-84
2022/07/08 00:14:11;;;;;;;7.00;2.22;;;22.50;86.70;;;;;;4896297;29;20541;-83
2022/07/08 00:16:40;;;;;;;5.50;1.73;;;22.30;87.60;;;;;;4896708;29;20100;-83
2022/07/08 00:19:07;;;;;;;5.75;1.42;;;22.30;88.10;;;;;;4896622;29;20504;-84
2022/07/08 00:21:33;;;;;;;5.68;1.80;;;22.40;87.90;;;;;;4896511;29;20088;-84
2022/07/08 00:23:58;;;;;;;3.75;1.67;;;22.40;87.60;;;;;;4894048;29;20409;-83
2022/07/08 00:26:24;;;;;;;8.18;1.70;;;22.30;87.90;;;;;;4885625;29;20029;-84
2022/07/08 00:28:50;;;;;;;5.35;1.95;;;22.20;88.00;;;;;;4881731;29;20498;-83
2022/07/08 00:31:15;;;;;;;6.90;1.60;;;22.20;88.10;;;;;;4896139;29;20036;-83
2022/07/08 00:33:41;;;;;;;3.35;1.42;;;22.10;88.90;;;;;;4895883;29;20032;-83
2022/07/08 00:36:07;;;;;;;5.32;1.52;;;22.10;89.10;;;;;;4895454;29;20032;-83
2022/07/08 00:38:32;;;;;;;6.40;1.98;;;22.00;89.30;;;;;;4895677;29;20400;-83
2022/07/08 00:40:58;;;;;;;3.15;1.52;;;21.90;89.50;;;;;;4896458;29;20490;-83
2022/07/08 00:43:34;;;;;;;3.40;1.13;;;21.90;90.00;;;;;;4895837;29;20111;-83
2022/07/08 00:46:00;;;;;;;5.00;1.55;;;21.80;90.00;;;;;;4896159;29;20120;-83
2022/07/08 00:48:26;;;;;;;2.72;1.45;;;21.80;90.10;;;;;;4896580;29;20104;-83
2022/07/08 00:50:51;;;;;;;3.88;1.40;;;21.70;90.20;;;;;;4895978;29;20024;-83
2022/07/08 00:53:18;;;;;;;3.25;1.50;;;21.60;90.30;;;;;;4899181;29;20076;-83
2022/07/08 00:55:44;;;;;;;6.03;1.33;;;21.60;90.40;;;;;;4899845;29;20028;-83
2022/07/08 00:58:12;;;;;;;4.90;1.58;;;21.50;90.60;;;;;;4899584;29;20040;-83
2022/07/08 01:00:37;;;;;;;5.60;1.75;;;21.50;90.50;;;;;;4898587;29;20504;-83
2022/07/08 01:03:03;;;;;;;4.07;1.35;;;21.50;90.50;;;;;;4899246;29;20033;-83
2022/07/08 01:05:29;;;;;;;2.92;1.20;;;21.50;90.50;;;;;;4898638;29;20051;-83
2022/07/08 01:07:54;;;;;;;4.50;1.52;;;21.50;90.60;;;;;;4899786;29;20442;-83
2022/07/08 01:10:20;;;;;;;3.83;1.65;;;21.40;90.60;;;;;;4898822;29;20032;-83
2022/07/08 01:12:46;;;;;;;2.97;1.50;;;21.40;90.60;;;;;;4899112;29;20024;-83
2022/07/08 01:15:12;;;;;;;7.57;1.58;;;21.30;90.70;;;;;;4899278;29;20081;-83
2022/07/08 01:17:45;;;;;;;2.58;1.20;;;21.40;90.70;;;;;;4899692;29;20044;-83
2022/07/08 01:20:12;;;;;;;3.17;1.30;;;21.40;90.70;;;;;;4898855;29;20119;-83
2022/07/08 01:22:38;;;;;;;4.78;1.88;;;21.40;90.60;;;;;;4897348;29;20088;-83
2022/07/08 01:25:05;;;;;;;6.25;1.60;;;21.30;90.70;;;;;;4899216;29;20037;-83
2022/07/08 01:27:31;;;;;;;3.58;1.63;;;21.30;90.70;;;;;;4899201;29;20040;-84
2022/07/08 01:29:57;;;;;;;3.50;1.70;;;21.30;90.70;;;;;;4898781;29;20033;-84
2022/07/08 01:32:29;;;;;;;6.30;1.80;;;21.30;91.00;;;;;;4898470;29;20032;-83
2022/07/08 01:34:54;;;;;;;8.80;1.67;;;21.30;90.90;;;;;;4898766;29;20555;-84
2022/07/08 01:37:20;;;;;;;3.58;1.45;;;21.10;91.00;;;;;;4898702;29;20072;-83
2022/07/08 01:39:47;;;;;;;2.30;1.20;;;21.10;91.40;;;;;;4899101;29;20056;-84
2022/07/08 01:42:13;;;;;;;3.75;1.30;;;21.10;91.50;;;;;;4898140;29;20032;-83
2022/07/08 01:44:38;;;;;;;4.30;1.52;;;21.00;91.50;;;;;;4894738;29;20076;-83
2022/07/08 01:47:04;;;;;;;2.65;1.10;;;21.00;91.50;;;;;;4898977;29;20029;-83
2022/07/08 01:49:30;;;;;;;2.35;1.20;;;21.00;91.60;;;;;;4898401;29;20028;-84
2022/07/08 01:51:56;;;;;;;3.15;1.20;;;21.00;91.50;;;;;;4898747;29;20504;-84
2022/07/08 01:54:22;;;;;;;5.32;1.52;;;21.00;91.70;;;;;;4898472;29;20028;-83
2022/07/08 01:56:47;;;;;;;4.25;1.30;;;20.90;91.60;;;;;;4898727;29;20056;-84
2022/07/08 01:59:13;;;;;;;2.22;1.33;;;20.90;91.80;;;;;;4898531;29;20115;-83
2022/07/08 02:01:39;;;;;;;5.13;1.70;;;20.90;92.00;;;;;;4898525;29;20035;-83
2022/07/08 02:04:04;;;;;;;5.15;1.85;;;20.80;91.80;;;;;;4896720;29;20032;-83
2022/07/08 02:06:30;;;;;;;2.78;1.30;;;20.80;92.00;;;;;;4896356;29;20048;-83
2022/07/08 02:08:56;;;;;;;3.30;1.27;;;20.70;92.00;;;;;;4897677;29;20028;-84
2022/07/08 02:14:05;;;;;;;5.13;1.23;;;20.60;92.30;;;;;;4898347;29;20045;-83
2022/07/08 02:16:31;;;;;;;3.20;1.17;;;20.50;92.30;;;;;;4897917;29;20032;-83
2022/07/08 02:18:57;;;;;;;5.95;1.55;;;20.50;92.50;;;;;;4897887;29;20036;-83
2022/07/08 02:21:22;;;;;;;3.38;1.08;;;20.40;92.60;;;;;;4897883;29;20103;-83
2022/07/08 02:23:48;;;;;;;5.85;1.50;;;20.30;93.20;;;;;;4897459;29;20037;-83
2022/07/08 02:26:14;;;;;;;4.43;1.50;;;20.30;93.10;;;;;;4897844;29;20115;-84
2022/07/08 02:28:39;;;;;;;3.78;1.48;;;20.20;93.00;;;;;;4898238;29;20526;-84
2022/07/08 02:31:05;;;;;;;6.28;1.40;;;20.20;93.20;;;;;;4898083;29;20020;-84
2022/07/08 02:33:30;;;;;;;7.13;1.52;;;20.20;93.10;;;;;;4896621;29;20043;-83
2022/07/08 02:35:56;;;;;;;7.90;1.40;;;20.10;93.20;;;;;;4897236;29;20040;-84
2022/07/08 02:38:22;;;;;;;6.10;1.77;;;20.10;93.30;;;;;;4896649;29;20043;-83
2022/07/08 02:40:48;;;;;;;3.55;1.30;;;20.10;93.50;;;;;;4896932;29;20033;-83
2022/07/08 02:43:13;;;;;;;3.80;1.50;;;20.00;93.60;;;;;;4897581;29;20029;-83
2022/07/08 02:45:39;;;;;;;4.43;1.67;;;20.00;93.60;;;;;;4897613;29;20107;-83
2022/07/08 02:48:08;;;;;;;4.85;1.50;;;19.90;93.60;;;;;;4896924;29;20059;-84
2022/07/08 02:50:34;;;;;;;3.83;1.48;;;19.90;93.70;;;;;;4897421;29;20107;-83
2022/07/08 02:52:59;;;;;;;5.88;1.58;;;19.80;93.90;;;;;;4891318;29;20108;-84
2022/07/08 02:55:25;;;;;;;5.55;1.20;;;19.90;94.00;;;;;;4879156;29;20516;-84
2022/07/08 02:57:51;;;;;;;7.13;2.13;;;19.80;93.90;;;;;;4896346;29;20044;-84
2022/07/08 03:00:17;;;;;;;4.97;1.30;;;19.80;94.10;;;;;;4897417;29;20112;-84
2022/07/08 03:02:43;;;;;;;6.78;2.03;;;19.60;94.60;;;;;;4896757;29;20108;-83
2022/07/08 03:05:09;;;;;;;6.78;1.63;;;19.60;94.50;;;;;;4897291;29;20045;-83
2022/07/08 03:07:34;;;;;;;3.55;1.60;;;19.70;94.50;;;;;;4895828;29;20037;-83
2022/07/08 03:10:00;;;;;;;5.63;1.80;;;19.50;94.50;;;;;;4897373;29;20029;-83
2022/07/08 03:12:26;;;;;;;3.30;1.60;;;19.50;94.90;;;;;;4896493;29;20037;-83
2022/07/08 03:14:52;;;;;;;6.68;2.00;;;19.50;94.90;;;;;;4896521;29;20033;-83
2022/07/08 03:17:18;;;;;;;4.45;1.80;;;19.40;95.00;;;;;;4896785;29;20028;-83
2022/07/08 03:19:44;;;;;;;3.33;1.48;;;19.40;95.10;;;;;;4897174;29;20072;-83
2022/07/08 03:22:09;;;;;;;6.22;2.30;;;19.40;94.90;;;;;;4896947;29;20060;-83
2022/07/08 03:24:35;;;;;;;6.45;1.50;;;19.40;95.10;;;;;;4896155;29;20025;-83
2022/07/08 03:27:01;;;;;;;6.18;2.28;;;19.30;95.50;;;;;;4897059;29;20040;-83
2022/07/08 03:29:26;;;;;;;3.75;1.67;;;19.20;95.90;;;;;;4897021;29;20032;-83
2022/07/08 03:31:52;;;;;;;6.35;2.17;;;19.10;95.90;;;;;;4896844;29;20029;-83
2022/07/08 03:34:18;;;;;;;12.00;1.90;;;19.20;95.90;;;;;;4881228;29;20029;-83
2022/07/08 03:36:43;;;;;;;4.57;1.90;;;19.30;95.90;;;;;;4891050;29;20107;-83
2022/07/08 03:39:09;;;;;;;4.72;1.77;;;19.20;96.00;;;;;;4897282;29;20036;-83
2022/07/08 03:41:35;;;;;;;7.95;2.03;;;19.20;96.20;;;;;;4896637;29;20496;-84
2022/07/08 03:44:00;;;;;;;9.40;2.00;;;19.10;96.50;;;;;;4896952;29;20064;-83
2022/07/08 03:46:26;;;;;;;7.45;1.88;;;19.00;96.60;;;;;;4895996;29;20116;-83
2022/07/08 03:48:52;;;;;;;4.55;2.03;;;19.00;97.00;;;;;;4896882;29;20039;-83
2022/07/08 03:51:20;;;;;;;4.72;1.88;;;19.00;97.00;;;;;;4896696;29;20433;-83
2022/07/08 03:53:45;;;;;;;6.35;2.17;;;19.00;97.10;;;;;;4896513;29;20056;-83
2022/07/08 03:56:12;;;;;;;4.40;2.00;;;19.00;97.30;;;;;;4896730;29;20073;-83
2022/07/08 03:58:38;;;;;;;5.25;1.95;;;18.90;97.60;;;;;;4896462;29;20029;-84
2022/07/08 04:01:05;;;;;;;6.43;2.38;;;18.50;98.20;;;;;;4896727;29;20067;-85
2022/07/08 04:03:30;;;;;;;4.15;2.03;;;18.60;98.80;;;;;;4896155;29;20317;-83
2022/07/08 04:05:56;;;;;;;11.18;2.25;;;18.70;98.80;;;;;;4896375;29;20474;-83
2022/07/08 04:08:22;;;;;;;8.13;2.63;;;18.70;98.80;;;;;;4896868;29;20096;-81
2022/07/08 04:10:48;;;;;;;4.80;1.83;;;18.70;99.30;;;;;;4896697;29;20028;-82
2022/07/08 04:13:13;;;;;;;4.75;2.08;;;18.70;99.10;;;;;;4896732;29;20029;-82
2022/07/08 04:15:39;;;;;;;6.20;2.05;;;18.80;99.10;;;;;;4895950;29;20025;-82
2022/07/08 04:18:05;;;;;;;10.07;2.47;;;18.70;99.60;;;;;;4895447;29;20400;-81
2022/07/08 04:20:30;;;;;;;8.38;2.30;;;18.70;99.60;;;;;;4896704;29;20040;-82
2022/07/08 04:22:56;;;;;;;8.25;2.20;;;18.70;99.80;;;;;;4896203;29;20033;-85
2022/07/08 04:25:22;;;;;;;5.40;1.98;;;18.40;99.90;;;;;;4896419;29;20035;-84
2022/07/08 04:27:47;;;;;;;4.57;1.70;;;18.50;99.90;;;;;;4894313;29;20051;-84
2022/07/08 04:30:13;;;;;;;4.93;2.10;;;18.50;99.90;;;;;;4895111;29;20105;-84
2022/07/08 04:32:39;;;;;;;5.40;2.08;;;18.50;99.90;;;;;;4898661;29;20017;-84
2022/07/08 04:35:05;;;;;;;6.28;2.17;;;18.50;99.90;;;;;;4898804;29;20401;-83
2022/07/08 04:37:31;;;;;;;8.57;2.25;;;18.40;99.90;;;;;;4898486;29;20040;-83
2022/07/08 04:39:56;;;;;;;10.32;2.17;;;18.50;99.90;;;;;;4900501;29;20496;-84
2022/07/08 04:42:22;;;;;;;5.55;1.92;;;18.60;99.90;;;;;;4900209;29;20037;-82
2022/07/08 04:44:48;;;;;;;8.70;2.33;;;18.60;99.90;;;;;;4899540;29;20119;-81
2022/07/08 04:47:14;;;;;;;8.27;3.10;;;18.50;99.90;;;;;;4897365;29;20032;-81
2022/07/08 04:49:39;;;;;;;7.82;2.05;;;18.30;99.90;;;;;;4896233;29;20024;-82
2022/07/08 04:52:06;;;;;;;8.05;2.40;;;18.30;99.90;;;;;;4890924;29;20044;-81
2022/07/08 04:54:33;;;;;;;6.28;2.35;;;18.40;99.90;;;;;;4900142;29;20401;-81
2022/07/08 04:56:58;;;;;;;7.22;2.05;;;18.40;99.90;;;;;;4891484;29;20036;-81
2022/07/08 04:59:24;;;;;;;13.40;1.90;;;18.50;99.90;;;;;;4900016;29;20040;-81
2022/07/08 05:01:50;;;;;;;9.75;2.15;;;18.60;99.90;;;;;;4896289;29;21499;-81
2022/07/08 05:04:15;;;;;;;5.20;2.60;;;18.60;99.90;;;;;;4881364;29;20029;-81
2022/07/08 05:06:41;;;;;;;10.45;2.60;;;18.50;99.90;;;;;;4881543;29;20508;-81
2022/07/08 05:09:07;;;;;;;4.97;2.00;;;18.50;99.90;;;;;;4881829;29;20557;-81
2022/07/08 05:11:32;;;;;;;9.45;2.72;;;18.40;99.90;;;;;;4881405;29;20379;-81
2022/07/08 05:13:58;;;;;;;8.07;3.05;;;18.50;99.90;;;;;;4881012;29;20025;-80
2022/07/08 05:16:24;;;;;;;11.82;2.45;;;18.40;99.90;;;;;;4881364;29;20374;-81
2022/07/08 05:18:49;;;;;;;11.77;2.25;;;18.30;99.90;;;;;;4880735;29;20112;-81
2022/07/08 05:21:15;;;;;;;11.50;2.53;;;18.30;99.90;;;;;;4893681;29;20036;-81
2022/07/08 05:23:41;;;;;;;14.27;3.00;;;18.40;99.90;;;;;;4899511;29;20080;-81
2022/07/08 05:26:06;;;;;;;9.57;3.08;;;18.20;99.90;;;;;;4899308;29;20043;-81
2022/07/08 05:28:32;;;;;;;10.57;2.83;;;18.30;99.90;;;;;;4898144;29;20024;-81
2022/07/08 05:30:58;;;;;;;9.95;2.95;;;18.40;99.90;;;;;;4895509;29;20437;-81
2022/07/08 05:33:23;;;;;;;7.03;2.75;;;18.50;99.90;;;;;;4899727;29;20025;-81
2022/07/08 05:35:49;;;;;;;8.05;2.67;;;18.60;99.90;;;;;;4899680;29;20032;-81
2022/07/08 05:38:15;;;;;;;10.95;2.85;;;18.60;99.90;;;;;;4899012;29;20079;-80
2022/07/08 05:40:40;;;;;;;9.05;2.88;;;18.60;99.90;;;;;;4899484;29;20124;-81
2022/07/08 05:43:06;;;;;;;10.88;3.60;;;18.60;99.90;;;;;;4899129;29;20028;-81
2022/07/08 05:45:32;;;;;;;6.78;2.72;;;18.60;99.90;;;;;;4898832;29;20079;-81
2022/07/08 05:47:57;;;;;;;6.85;2.40;;;18.60;99.90;;;;;;4887778;29;20024;-81
2022/07/08 05:50:23;;;;;;;9.07;3.08;;;18.60;99.90;;;;;;4892229;29;20029;-81
2022/07/08 05:52:49;;;;;;;13.93;3.38;;;18.60;99.90;;;;;;4888692;29;20481;-81
2022/07/08 05:55:14;;;;;;;5.93;2.78;;;18.70;99.90;;;;;;4892459;29;20044;-81
2022/07/08 05:57:40;;;;;;;7.70;2.95;;;18.70;99.90;;;;;;4881640;29;20036;-81
2022/07/08 06:00:07;;;;;;;7.45;2.95;;;18.80;99.90;;;;;;4897145;29;20056;-80
2022/07/08 06:02:32;;;;;;;11.23;3.13;;;18.80;99.90;;;;;;4898545;29;20063;-81
2022/07/08 06:04:58;;;;;;;12.25;3.35;;;18.60;99.90;;;;;;4897325;29;20088;-80
2022/07/08 06:07:23;;;;;;;16.13;4.07;;;18.70;99.90;;;;;;4898414;29;20029;-81
2022/07/08 06:09:50;;;;;;;12.52;3.88;;;18.80;99.90;;;;;;4898149;29;20470;-80
2022/07/08 06:12:15;;;;;;;8.23;3.00;;;18.80;99.90;;;;;;4898364;29;20025;-83
2022/07/08 06:14:41;;;;;;;11.75;3.58;;;18.80;99.90;;;;;;4898058;29;20432;-83
2022/07/08 06:17:07;;;;;;;9.70;2.95;;;18.80;99.90;;;;;;4895633;29;20493;-82
2022/07/08 06:19:32;;;;;;;9.52;3.20;;;19.00;99.90;;;;;;4893519;29;20044;-82
2022/07/08 06:21:58;;;;;;;10.02;3.85;;;19.00;99.90;;;;;;4896321;29;20075;-82
2022/07/08 06:24:24;;;;;;;8.65;3.03;;;19.00;99.90;;;;;;4893623;29;20044;-81
2022/07/08 06:26:51;;;;;;;10.07;3.17;;;18.90;99.90;;;;;;4898091;29;20029;-81
2022/07/08 06:29:16;;;;;;;9.68;3.35;;;19.00;99.90;;;;;;4883157;29;20029;-80
2022/07/08 06:31:42;;;;;;;8.70;3.78;;;18.90;99.90;;;;;;4880289;29;20100;-80
2022/07/08 06:34:08;;;;;;;11.68;3.15;;;19.00;99.90;;;;;;4879853;29;20100;-80
2022/07/08 06:36:33;;;;;;;7.45;3.30;;;19.00;99.90;;;;;;4879416;29;20261;-83
2022/07/08 06:38:59;;;;;;;6.00;3.22;;;19.00;99.90;;;;;;4878872;29;20394;-78
2022/07/08 06:41:25;;;;;;;5.40;3.00;;;19.10;99.90;;;;;;4879221;29;20052;-79
2022/07/08 06:43:51;;;;;;;11.02;3.85;;;19.10;99.90;;;;;;4879224;29;20115;-80
2022/07/08 06:46:17;;;;;;;13.52;3.30;;;19.20;99.90;;;;;;4879446;29;20165;-79
2022/07/08 06:48:42;;;;;;;10.98;3.50;;;19.20;99.90;;;;;;4878975;29;20036;-79
2022/07/08 06:51:10;;;;;;;12.32;3.25;;;19.30;99.90;;;;;;4879199;29;20056;-79
2022/07/08 06:56:20;;;;;;;6.28;2.72;;;19.40;99.90;;;;;;4879580;29;20040;-80
2022/07/08 06:58:46;;;;;;;5.32;2.80;;;19.60;99.90;;;;;;4879279;29;20037;-81
2022/07/08 07:01:12;;;;;;;6.00;2.95;;;19.60;99.90;;;;;;4897608;29;20034;-81
2022/07/08 07:03:38;;;;;;;12.48;3.15;;;19.60;99.90;;;;;;4883172;29;20036;-81
2022/07/08 07:06:04;;;;;;;5.40;3.25;;;19.60;99.90;;;;;;4878650;29;20045;-83
2022/07/08 07:08:30;;;;;;;8.25;2.95;;;19.60;99.90;;;;;;4878903;29;20091;-83
2022/07/08 07:10:55;;;;;;;11.48;2.90;;;19.70;99.90;;;;;;4878735;29;20398;-83
2022/07/08 07:13:21;;;;;;;7.97;3.25;;;19.70;99.90;;;;;;4889840;29;20403;-86
2022/07/08 07:15:46;;;;;;;9.30;3.50;;;19.80;99.90;;;;;;4895943;29;20028;-82
2022/07/08 07:18:12;;;;;;;8.07;2.85;;;19.90;99.90;;;;;;4895875;29;20036;-84
2022/07/08 07:20:38;;;;;;;8.65;3.20;;;20.00;99.90;;;;;;4891618;29;20497;-81
2022/07/08 07:23:03;;;;;;;6.60;3.25;;;19.90;99.90;;;;;;4894187;29;20041;-81
2022/07/08 07:25:29;;;;;;;8.23;2.80;;;20.00;99.90;;;;;;4878411;29;20033;-82
2022/07/08 07:27:54;;;;;;;6.72;2.70;;;20.10;99.90;;;;;;4878260;29;20116;-82
2022/07/08 07:30:24;;;;;;;6.43;2.90;;;20.20;99.90;;;;;;4878522;29;20108;-82
2022/07/08 07:32:53;;;;;;;9.25;3.05;;;20.20;99.90;;;;;;4876928;29;20080;-81
2022/07/08 07:35:18;;;;;;;4.68;2.40;;;20.30;99.90;;;;;;4877986;29;20104;-81
2022/07/08 07:37:44;;;;;;;8.15;2.10;;;20.40;99.90;;;;;;4878029;29;20116;-81
2022/07/08 07:40:10;;;;;;;5.50;2.30;;;20.50;99.90;;;;;;4878083;29;20032;-80
2022/07/08 07:42:36;;;;;;;5.20;2.53;;;20.50;99.90;;;;;;4878356;29;20033;-81
2022/07/08 07:45:03;;;;;;;10.38;2.75;;;20.60;99.90;;;;;;4877793;29;20078;-81
2022/07/08 07:47:29;;;;;;;4.75;2.00;;;20.60;99.90;;;;;;4878288;29;20021;-82
2022/07/08 07:49:55;;;;;;;6.72;2.05;;;20.60;99.90;;;;;;4878535;29;20032;-83
2022/07/08 07:52:21;;;;;;;11.35;2.70;;;20.70;99.50;;;;;;4877659;29;20029;-83
2022/07/08 07:54:47;;;;;;;6.80;1.98;;;20.70;99.80;;;;;;4894959;29;20016;-80
2022/07/08 07:57:13;;;;;;;6.32;2.00;;;20.70;99.40;;;;;;4896258;29;20544;-79
2022/07/08 07:59:39;;;;;;;7.22;2.63;;;20.80;98.90;;;;;;4896853;29;20040;-79
2022/07/08 08:02:05;;;;;;;7.88;2.08;;;20.90;98.70;;;;;;4894469;29;20477;-81
2022/07/08 08:04:31;;;;;;;7.75;2.10;;;21.00;98.60;;;;;;4894408;29;20033;-76
2022/07/08 08:06:57;;;;;;;7.97;2.10;;;21.10;99.00;;;;;;4887158;29;20021;-76
2022/07/08 08:09:23;;;;;;;9.27;2.35;;;21.20;98.60;;;;;;4891041;29;20544;-76
2022/07/08 08:11:49;;;;;;;7.90;2.60;;;21.20;98.00;;;;;;4892638;29;20110;-76
2022/07/08 08:14:14;;;;;;;8.48;2.30;;;21.30;98.10;;;;;;4886653;29;20104;-76
2022/07/08 08:16:40;;;;;;;9.30;2.60;;;21.30;97.80;;;;;;4883002;29;20181;-75
2022/07/08 08:19:06;;;;;;;11.45;2.88;;;21.40;97.50;;;;;;4886944;29;20452;-75
2022/07/08 08:21:31;;;;;;;4.38;1.95;;;21.50;97.80;;;;;;4879294;29;20040;-75
2022/07/08 08:23:57;;;;;;;8.23;2.35;;;21.70;97.00;;;;;;4881663;29;20095;-75
2022/07/08 08:26:23;;;;;;;5.85;2.20;;;21.80;97.10;;;;;;4877827;29;20375;-75
2022/07/08 08:28:49;;;;;;;12.13;3.03;;;22.10;96.80;;;;;;4886243;29;20394;-75
2022/07/08 08:31:15;;;;;;;6.15;1.90;;;22.40;96.10;;;;;;4881293;29;21469;-76
2022/07/08 08:33:41;;;;;;;9.35;2.35;;;22.80;95.90;;;;;;4892958;29;20029;-76
2022/07/08 08:36:07;;;;;;;9.68;2.55;;;22.90;94.20;;;;;;4888668;29;20029;-76
2022/07/08 08:38:33;;;;;;;6.43;2.45;;;23.10;93.90;;;;;;4890764;29;20036;-76
2022/07/08 08:40:59;;;;;;;9.70;2.25;;;23.30;93.60;;;;;;4892763;29;20044;-76
2022/07/08 08:43:26;;;;;;;7.57;1.92;;;23.50;93.40;;;;;;4879175;29;20021;-75
2022/07/08 08:45:52;;;;;;;4.28;1.80;;;23.80;92.80;;;;;;4892955;29;20041;-76
2022/07/08 08:48:22;;;;;;;10.38;2.08;;;24.00;91.90;;;;;;4891290;29;20028;-76
2022/07/08 08:50:53;;;;;;;3.15;1.67;;;24.30;91.10;;;;;;4896100;29;20024;-76
2022/07/08 08:53:30;;;;;;;5.88;2.17;;;24.40;91.00;;;;;;4885522;29;20021;-82
2022/07/08 08:55:57;;;;;;;4.22;1.80;;;24.60;90.60;;;;;;4887280;29;20403;-83
2022/07/08 08:58:24;;;;;;;6.20;2.05;;;24.90;89.80;;;;;;4886427;29;20072;-82
2022/07/08 09:00:49;;;;;;;7.63;2.20;;;25.00;89.80;;;;;;4877341;29;20061;-84
2022/07/08 09:03:15;;;;;;;7.13;2.00;;;25.10;89.00;;;;;;4883291;29;20068;-83
2022/07/08 09:05:41;;;;;;;6.95;2.03;;;25.40;88.00;;;;;;4884227;29;20100;-79
2022/07/08 09:08:07;;;;;;;5.15;1.50;;;25.50;87.30;;;;;;4895279;29;20505;-80
2022/07/08 09:10:34;;;;;;;8.77;2.10;;;26.00;84.30;;;;;;4879495;29;20081;-79
2022/07/08 09:13:00;;;;;;;6.85;1.77;;;25.80;83.60;;;;;;4886690;29;20115;-81
2022/07/08 09:15:31;;;;;;;5.65;1.17;;;26.00;81.40;;;;;;4887736;29;20036;-79
2022/07/08 09:17:59;;;;;;;4.03;1.50;;;26.30;81.80;;;;;;4886091;29;20036;-80
2022/07/08 09:20:24;;;;;;;6.47;1.35;;;26.50;79.60;;;;;;4879070;29;20070;-80
2022/07/08 09:22:50;;;;;;;5.90;1.65;;;26.40;77.30;;;;;;4885889;29;20033;-83
2022/07/08 09:25:16;;;;;;;6.63;1.35;;;26.50;76.40;;;;;;4881641;29;20079;-80
2022/07/08 09:27:41;;;;;;;4.13;1.30;;;26.50;73.60;;;;;;4886160;29;20060;-80
2022/07/08 09:30:08;;;;;;;3.67;1.35;;;26.80;72.90;;;;;;4891230;29;20069;-81
2022/07/08 09:32:35;;;;;;;4.57;1.30;;;27.20;73.20;;;;;;4886835;29;20072;-81
2022/07/08 09:35:00;;;;;;;3.38;1.40;;;27.40;73.70;;;;;;4884241;29;20489;-80
2022/07/08 09:37:26;;;;;;;3.63;1.20;;;27.30;72.90;;;;;;4879774;29;20031;-80
2022/07/08 09:39:51;;;;;;;5.53;1.38;;;27.10;71.90;;;;;;4893382;29;20028;-82
2022/07/08 09:42:17;;;;;;;6.28;1.17;;;26.50;71.50;;;;;;4889055;29;20072;-82
2022/07/08 09:44:51;;;;;;;3.70;1.40;;;26.70;71.90;;;;;;4891185;29;20021;-83
2022/07/08 09:47:16;;;;;;;4.75;1.50;;;27.30;70.50;;;;;;4891317;29;20040;-82
2022/07/08 09:49:45;;;;;;;3.40;1.33;;;27.60;68.30;;;;;;4880062;29;20367;-82
2022/07/08 09:52:18;;;;;;;7.00;1.30;;;27.80;67.80;;;;;;4887107;29;20029;-82
2022/07/08 09:54:44;;;;;;;3.13;1.27;;;26.90;68.10;;;;;;4898107;29;20111;-82
2022/07/08 09:57:11;;;;;;;5.15;1.20;;;27.20;68.10;;;;;;4897974;29;20124;-81
2022/07/08 09:59:37;;;;;;;3.60;1.20;;;27.30;67.10;;;;;;4888363;29;20048;-85
2022/07/08 10:02:03;;;;;;;7.78;1.90;;;27.20;68.10;;;;;;4892113;29;20036;-84
2022/07/08 10:04:30;;;;;;;9.38;1.58;;;27.40;68.20;;;;;;4889055;29;20031;-81
2022/07/08 10:06:57;;;;;;;8.20;1.60;;;27.60;69.00;;;;;;4885873;29;20032;-86
2022/07/08 10:09:25;;;;;;;4.72;1.15;;;28.00;67.30;;;;;;4888839;29;20478;-85
2022/07/08 10:11:52;;;;;;;3.80;1.73;;;28.00;68.10;;;;;;4892605;29;20028;-81
2022/07/08 10:14:19;;;;;;;7.60;1.52;;;28.20;67.80;;;;;;4894866;29;20553;-80
2022/07/08 10:16:49;;;;;;;9.30;1.60;;;28.30;67.90;;;;;;4894676;29;20016;-80
2022/07/08 10:19:31;;;;;;;4.97;1.23;;;28.30;67.70;;;;;;4887035;29;20519;-80
2022/07/08 10:21:58;;;;;;;3.72;1.55;;;28.60;68.50;;;;;;4890685;29;20043;-81
2022/07/08 10:24:28;;;;;;;3.72;1.70;;;28.70;67.60;;;;;;4897908;29;20111;-80
2022/07/08 10:26:58;;;;;;;3.58;1.40;;;28.30;66.00;;;;;;4888911;29;20505;-78
2022/07/08 10:29:32;;;;;;;3.13;1.50;;;28.50;65.90;;;;;;4879263;29;20041;-79
2022/07/08 10:31:59;;;;;;;7.22;1.67;;;28.70;66.10;;;;;;4887336;29;20025;-79
2022/07/08 10:34:35;;;;;;;3.72;1.70;;;28.80;66.20;;;;;;4898055;29;20029;-78
2022/07/08 10:37:03;;;;;;;3.22;1.55;;;28.70;66.90;;;;;;4890526;29;20324;-78
2022/07/08 10:39:38;;;;;;;5.13;1.70;;;29.00;65.20;;;;;;4879207;29;20064;-78
2022/07/08 10:42:05;;;;;;;10.20;1.80;;;28.70;64.80;;;;;;4879276;29;20077;-85
2022/07/08 10:44:43;;;;;;;2.92;1.45;;;28.50;64.50;;;;;;4877950;29;20128;-79
2022/07/08 10:47:10;;;;;;;2.65;1.60;;;28.70;63.60;;;;;;4883935;29;20032;-79
2022/07/08 10:49:45;;;;;;;9.30;1.77;;;28.90;64.10;;;;;;4887933;29;20039;-79
2022/07/08 10:52:15;;;;;;;5.50;1.75;;;29.30;63.70;;;;;;4883585;29;20033;-78
2022/07/08 10:54:42;;;;;;;3.67;1.45;;;29.20;63.50;;;;;;4893664;29;20742;-80
2022/07/08 10:57:10;;;;;;;7.85;1.77;;;29.30;63.30;;;;;;4883864;29;20055;-78
2022/07/08 10:59:37;;;;;;;5.75;2.08;;;29.10;62.70;;;;;;4887625;29;20032;-78
2022/07/08 11:02:11;;;;;;;4.28;1.60;;;29.00;64.10;;;;;;4886468;29;20028;-80
2022/07/08 11:04:40;;;;;;;3.00;1.52;;;29.80;64.80;;;;;;4885982;29;20579;-80
2022/07/08 11:07:11;;;;;;;3.38;1.70;;;29.70;63.30;;;;;;4885780;29;20108;-78
2022/07/08 11:09:39;;;;;;;8.65;1.63;;;29.50;61.70;;;;;;4884769;29;20029;-79
2022/07/08 11:12:05;;;;;;;11.63;1.90;;;29.10;62.30;;;;;;4887692;29;20424;-75
2022/07/08 11:14:32;;;;;;;2.35;1.38;;;28.80;62.80;;;;;;4884554;29;20043;-76
2022/07/08 11:16:59;;;;;;;6.55;1.83;;;29.00;62.10;;;;;;4885473;29;20025;-80
2022/07/08 11:19:32;;;;;;;5.38;1.63;;;29.30;62.40;;;;;;4887718;29;20033;-82
2022/07/08 11:22:01;;;;;;;4.60;1.65;;;29.50;60.90;;;;;;4885714;29;20032;-81
2022/07/08 11:24:28;;;;;;;3.75;1.42;;;29.50;62.00;;;;;;4889092;29;20433;-80
2022/07/08 11:26:54;;;;;;;5.07;1.40;;;29.50;61.10;;;;;;4885424;29;20028;-80
2022/07/08 11:29:24;;;;;;;2.53;1.38;;;29.90;59.40;;;;;;4884853;29;20033;-81
2022/07/08 11:31:57;;;;;;;7.05;2.00;;;29.60;60.40;;;;;;4882805;29;20017;-82
2022/07/08 11:34:24;;;;;;;3.88;1.73;;;29.50;59.50;;;;;;4887514;29;20053;-83
2022/07/08 11:36:57;;;;;;;5.15;1.67;;;29.90;59.10;;;;;;4886497;29;20025;-83
2022/07/08 11:39:23;;;;;;;2.83;1.50;;;29.80;58.50;;;;;;4886848;29;20037;-84
2022/07/08 11:41:50;;;;;;;4.13;1.70;;;30.00;58.80;;;;;;4884384;29;20028;-82
2022/07/08 11:44:20;;;;;;;5.13;1.65;;;30.20;58.70;;;;;;4893947;29;20111;-85
2022/07/08 11:46:52;;;;;;;4.13;1.70;;;29.90;57.70;;;;;;4879947;29;20032;-83
2022/07/08 11:49:20;;;;;;;3.42;1.63;;;30.00;58.10;;;;;;4883133;29;20032;-84
2022/07/08 11:51:47;;;;;;;3.22;1.60;;;30.10;59.00;;;;;;4891440;29;20482;-84
2022/07/08 11:54:14;;;;;;;7.03;1.90;;;30.40;58.00;;;;;;4886893;29;20035;-83
2022/07/08 11:56:40;;;;;;;4.40;1.92;;;30.10;59.70;;;;;;4881267;29;20102;-83
2022/07/08 11:59:06;;;;;;;6.18;1.58;;;30.30;58.60;;;;;;4889154;29;20028;-82
2022/07/08 12:01:33;;;;;;;7.80;2.10;;;30.50;58.60;;;;;;4888944;29;20035;-82
2022/07/08 12:03:59;;;;;;;6.40;1.63;;;30.00;57.90;;;;;;4888864;29;20405;-82
2022/07/08 12:06:26;;;;;;;3.45;1.85;;;30.00;58.60;;;;;;4891862;29;20127;-83
2022/07/08 12:08:53;;;;;;;3.17;1.73;;;30.10;58.10;;;;;;4887831;29;20040;-82
2022/07/08 12:11:25;;;;;;;6.85;1.95;;;30.20;56.10;;;;;;4895453;29;20035;-82
2022/07/08 12:13:51;;;;;;;3.28;1.67;;;30.30;57.80;;;;;;4883105;29;20029;-82
2022/07/08 12:16:29;;;;;;;3.90;2.05;;;30.30;58.00;;;;;;4886097;29;20033;-82
2022/07/08 12:18:55;;;;;;;9.15;2.30;;;30.70;57.40;;;;;;4891819;29;20020;-83
2022/07/08 12:21:21;;;;;;;8.45;2.03;;;30.70;58.00;;;;;;4888580;29;20059;-82
2022/07/08 12:24:03;;;;;;;4.93;2.17;;;30.60;57.50;;;;;;4887444;29;20035;-82
2022/07/08 12:26:29;;;;;;;;;;;30.40;57.20;;;;;;4889236;29;20025;-82
2022/07/08 12:28:55;;;;;;;4.82;1.88;;;30.60;55.50;;;;;;4884982;29;20403;-82
2022/07/08 12:31:41;;;;;;;5.18;1.92;;;30.90;54.70;;;;;;4887972;29;20029;-82
2022/07/08 12:34:08;;;;;;;5.32;1.88;;;30.50;54.10;;;;;;4894961;29;20051;-83
2022/07/08 12:36:34;;;;;;;3.33;1.42;;;30.70;54.40;;;;;;4886714;29;20392;-82
2022/07/08 12:39:21;;;;;;;2.72;1.23;;;30.60;54.80;;;;;;4889753;29;20032;-82
2022/07/08 12:42:01;;;;;;;2.97;1.45;;;30.50;53.20;;;;;;4887383;29;20059;-82
2022/07/08 12:44:41;;;;;;;4.47;1.88;;;30.70;53.20;;;;;;4882253;29;20021;-82
2022/07/08 12:47:14;;;;;;;3.60;1.48;;;30.90;53.60;;;;;;4895516;29;20032;-82
2022/07/08 12:49:42;;;;;;;5.60;1.48;;;31.10;52.90;;;;;;4895260;29;20024;-83